Řízení letového provozu České republiky
Letiste: LKKV Aktualizace: 20.01.2017 22:08:14  UTC
 METAR LKKV 20.01. 22:00 ...
METAR LKKV 202200Z 10003KT CAVOK M07/M14 Q1031 R29/////// RMK REG QNH 1028=
 TAF LKKV 20.01. 17:00 ...
TAF LKKV 201700Z 2018/2200 VRB02KT CAVOK=